createdAt,value
2022-08-16T00:01:33.688Z,22.38
2022-08-16T00:04:05.194Z,22.35
2022-08-16T00:06:33.856Z,22.33
2022-08-16T00:09:05.459Z,22.33
2022-08-16T00:11:34.942Z,22.30
2022-08-16T00:14:08.661Z,22.30
2022-08-16T00:17:01.375Z,22.28
2022-08-16T00:19:41.554Z,22.29
2022-08-16T00:22:13.570Z,22.27
2022-08-16T00:24:50.115Z,22.25
2022-08-16T00:27:19.973Z,22.25
2022-08-16T00:30:08.604Z,22.25
2022-08-16T00:32:39.236Z,22.22
2022-08-16T00:35:15.514Z,22.20
2022-08-16T00:37:56.700Z,22.19
2022-08-16T00:40:43.676Z,22.19
2022-08-16T00:43:24.055Z,22.22
2022-08-16T00:46:34.243Z,22.22
2022-08-16T00:49:17.243Z,22.22
2022-08-16T00:51:55.079Z,22.22
2022-08-16T00:54:29.831Z,22.23
2022-08-16T00:57:05.538Z,22.22
2022-08-16T00:59:50.731Z,22.23
2022-08-16T01:02:31.619Z,22.24
2022-08-16T01:05:10.980Z,22.24
2022-08-16T01:07:51.739Z,22.25
2022-08-16T01:10:32.416Z,22.25
2022-08-16T01:13:09.022Z,22.23
2022-08-16T01:15:45.574Z,22.17
2022-08-16T01:18:40.377Z,22.10
2022-08-16T01:21:33.495Z,22.01
2022-08-16T01:24:53.210Z,21.96
2022-08-16T01:27:18.670Z,21.92
2022-08-16T01:30:01.972Z,21.90
2022-08-16T01:32:36.222Z,21.88
2022-08-16T01:35:16.753Z,21.84
2022-08-16T01:37:52.989Z,21.77
2022-08-16T01:40:27.105Z,21.72
2022-08-16T01:42:56.276Z,21.69
2022-08-16T01:45:24.668Z,21.66
2022-08-16T01:48:19.191Z,21.60
2022-08-16T01:51:09.506Z,21.55
2022-08-16T01:53:41.330Z,21.46
2022-08-16T01:56:23.428Z,21.40
2022-08-16T01:58:59.770Z,21.37
2022-08-16T02:01:29.188Z,21.36
2022-08-16T02:04:10.266Z,21.33
2022-08-16T02:06:46.921Z,21.31
2022-08-16T02:09:19.614Z,21.28
2022-08-16T02:11:54.318Z,21.27
2022-08-16T02:14:27.335Z,21.27
2022-08-16T02:16:58.540Z,21.26
2022-08-16T02:19:58.702Z,21.26
2022-08-16T02:22:34.603Z,21.23
2022-08-16T02:25:23.408Z,21.20
2022-08-16T02:27:51.814Z,21.20
2022-08-16T02:30:36.666Z,21.18
2022-08-16T02:33:15.477Z,21.13
2022-08-16T02:35:53.691Z,21.07
2022-08-16T02:38:24.157Z,21.01
2022-08-16T02:40:54.343Z,20.94
2022-08-16T02:43:26.914Z,20.90
2022-08-16T02:45:57.399Z,20.89
2022-08-16T02:48:30.837Z,20.86
2022-08-16T02:51:06.477Z,20.81
2022-08-16T02:53:43.568Z,20.77
2022-08-16T02:56:14.962Z,20.73
2022-08-16T02:58:46.321Z,20.66
2022-08-16T03:01:25.463Z,20.63
2022-08-16T03:04:46.455Z,20.59
2022-08-16T03:06:57.497Z,20.57
2022-08-16T03:09:28.833Z,20.55
2022-08-16T03:12:02.552Z,20.52
2022-08-16T03:14:31.628Z,20.52
2022-08-16T03:17:01.858Z,20.54
2022-08-16T03:19:47.443Z,20.55
2022-08-16T03:22:28.150Z,20.53
2022-08-16T03:25:01.235Z,20.56
2022-08-16T03:27:32.279Z,20.58
2022-08-16T03:30:17.353Z,20.61
2022-08-16T03:32:51.251Z,20.63
2022-08-16T03:35:32.446Z,20.65
2022-08-16T03:38:05.053Z,20.69
2022-08-16T03:40:54.570Z,20.72
2022-08-16T03:43:24.508Z,20.76
2022-08-16T03:46:13.670Z,20.80
2022-08-16T03:49:02.204Z,20.84
2022-08-16T03:51:30.438Z,20.88
2022-08-16T03:54:01.288Z,20.90
2022-08-16T03:56:30.544Z,20.92
2022-08-16T03:58:59.661Z,20.92
2022-08-16T04:01:29.952Z,20.90
2022-08-16T04:03:58.258Z,20.89
2022-08-16T04:06:30.732Z,20.90
2022-08-16T04:08:58.706Z,20.92
2022-08-16T04:11:26.664Z,20.96
2022-08-16T04:14:08.582Z,20.94
2022-08-16T04:16:53.529Z,20.96
2022-08-16T04:19:21.627Z,20.98
2022-08-16T04:21:49.850Z,21.02
2022-08-16T04:24:17.610Z,21.04
2022-08-16T04:26:45.990Z,21.07
2022-08-16T04:29:23.297Z,21.09
2022-08-16T04:31:56.576Z,21.09
2022-08-16T04:34:31.179Z,21.12
2022-08-16T04:37:01.928Z,21.13
2022-08-16T04:39:44.905Z,21.13
2022-08-16T04:42:26.013Z,21.14
2022-08-16T04:44:58.617Z,21.17
2022-08-16T04:47:35.443Z,21.20
2022-08-16T04:50:14.459Z,21.24
2022-08-16T04:52:46.203Z,21.30
2022-08-16T04:55:20.965Z,21.35
2022-08-16T04:58:00.425Z,21.42
2022-08-16T05:00:34.514Z,21.53
2022-08-16T05:03:07.382Z,21.61
2022-08-16T05:05:44.832Z,21.70
2022-08-16T05:08:30.484Z,21.82
2022-08-16T05:11:03.480Z,21.94
2022-08-16T05:13:41.311Z,22.06
2022-08-16T05:16:32.256Z,22.19
2022-08-16T05:19:05.364Z,22.33
2022-08-16T05:21:39.931Z,22.42
2022-08-16T05:24:08.957Z,22.55
2022-08-16T05:26:40.858Z,22.63
2022-08-16T05:29:15.254Z,22.74
2022-08-16T05:31:48.027Z,22.86
2022-08-16T05:34:20.355Z,22.93
2022-08-16T05:36:53.548Z,22.98
2022-08-16T05:39:22.450Z,23.02
2022-08-16T05:41:52.389Z,23.04
2022-08-16T05:44:25.224Z,23.05
2022-08-16T05:46:56.718Z,23.05
2022-08-16T05:49:39.510Z,23.06
2022-08-16T05:52:10.679Z,23.09
2022-08-16T05:54:46.775Z,23.10
2022-08-16T05:57:18.762Z,23.13
2022-08-16T05:59:50.640Z,23.18
2022-08-16T06:02:33.966Z,23.18
2022-08-16T06:05:03.771Z,23.24
2022-08-16T06:07:32.436Z,23.32
2022-08-16T06:10:02.271Z,23.44
2022-08-16T06:12:31.431Z,23.61
2022-08-16T06:15:04.299Z,23.88
2022-08-16T06:17:42.438Z,24.24
2022-08-16T06:20:24.266Z,24.79
2022-08-16T06:23:03.254Z,25.48
2022-08-16T06:25:35.770Z,25.74
2022-08-16T06:28:17.010Z,25.74
2022-08-16T06:30:59.125Z,25.42
2022-08-16T06:33:29.957Z,25.37
2022-08-16T06:36:14.239Z,25.42
2022-08-16T06:38:55.855Z,25.57
2022-08-16T06:41:27.273Z,25.79
2022-08-16T06:43:57.566Z,26.15
2022-08-16T06:46:34.559Z,26.36
2022-08-16T06:49:05.765Z,26.43
2022-08-16T06:51:48.333Z,26.57
2022-08-16T06:54:17.747Z,26.67
2022-08-16T06:56:46.192Z,26.71
2022-08-16T06:59:14.498Z,26.88
2022-08-16T07:01:52.088Z,26.93
2022-08-16T07:04:33.261Z,26.85
2022-08-16T07:07:09.895Z,26.92
2022-08-16T07:09:39.518Z,26.76
2022-08-16T07:12:08.518Z,26.76
2022-08-16T07:14:36.576Z,26.98
2022-08-16T07:17:11.567Z,27.18
2022-08-16T07:20:03.153Z,27.43
2022-08-16T07:22:38.848Z,27.86
2022-08-16T07:25:10.506Z,28.31
2022-08-16T07:27:41.401Z,28.46
2022-08-16T07:30:38.060Z,28.72
2022-08-16T07:33:02.525Z,29.00
2022-08-16T07:35:31.110Z,29.33
2022-08-16T07:38:00.001Z,29.65
2022-08-16T07:40:49.559Z,29.86
2022-08-16T07:43:16.655Z,30.24
2022-08-16T07:45:47.222Z,30.85
2022-08-16T07:48:22.261Z,31.17
2022-08-16T07:50:56.310Z,31.33
2022-08-16T07:53:30.038Z,31.48
2022-08-16T07:56:00.726Z,31.61
2022-08-16T07:58:33.779Z,31.96
2022-08-16T08:01:10.699Z,32.19
2022-08-16T08:03:48.404Z,32.33
2022-08-16T08:06:19.806Z,32.58
2022-08-16T08:08:49.240Z,32.62
2022-08-16T08:11:18.346Z,33.41
2022-08-16T08:13:46.609Z,34.47
2022-08-16T08:16:18.343Z,35.22
2022-08-16T08:18:50.111Z,35.11
2022-08-16T08:21:19.573Z,35.40
2022-08-16T08:23:57.256Z,36.13
2022-08-16T08:26:25.456Z,36.58
2022-08-16T08:28:53.506Z,36.37
2022-08-16T08:31:29.579Z,35.31
2022-08-16T08:34:00.115Z,35.18
2022-08-16T08:36:34.244Z,35.66
2022-08-16T08:39:13.138Z,35.98
2022-08-16T08:41:43.619Z,35.92
2022-08-16T08:44:28.815Z,35.23
2022-08-16T08:47:11.081Z,34.45
2022-08-16T08:49:50.386Z,34.01
2022-08-16T08:52:34.583Z,33.63
2022-08-16T08:55:09.078Z,33.27
2022-08-16T08:57:47.839Z,32.94
2022-08-16T09:00:21.285Z,32.60
2022-08-16T09:03:07.912Z,32.21
2022-08-16T09:05:38.373Z,31.99
2022-08-16T09:08:07.409Z,31.85
2022-08-16T09:10:39.549Z,31.66
2022-08-16T09:13:10.684Z,31.47
2022-08-16T09:15:40.106Z,31.32
2022-08-16T09:18:25.263Z,31.00
2022-08-16T09:20:58.371Z,30.37
2022-08-16T09:23:36.409Z,30.33
2022-08-16T09:26:44.167Z,30.39
2022-08-16T09:29:15.121Z,30.33
2022-08-16T09:31:44.128Z,30.33
2022-08-16T09:34:18.632Z,30.26
2022-08-16T09:36:47.669Z,30.23
2022-08-16T09:39:16.653Z,30.16
2022-08-16T09:41:53.941Z,30.26
2022-08-16T09:45:11.627Z,30.37
2022-08-16T09:47:13.250Z,30.50
2022-08-16T09:49:41.383Z,30.57
2022-08-16T09:52:10.619Z,30.57
2022-08-16T09:54:44.505Z,30.50
2022-08-16T09:57:15.006Z,30.22
2022-08-16T09:59:43.297Z,29.93
2022-08-16T10:02:23.034Z,29.91
2022-08-16T10:04:58.747Z,30.09
2022-08-16T10:07:44.350Z,30.13
2022-08-16T10:10:18.697Z,30.11
2022-08-16T10:13:16.267Z,30.21
2022-08-16T10:15:55.531Z,30.22
2022-08-16T10:18:56.598Z,30.19
2022-08-16T10:21:18.395Z,30.12
2022-08-16T10:23:48.869Z,30.09
2022-08-16T10:27:18.381Z,30.20
2022-08-16T10:29:09.022Z,30.23
2022-08-16T10:31:44.227Z,30.37
2022-08-16T10:34:31.130Z,30.55
2022-08-16T10:37:02.339Z,30.56
2022-08-16T10:39:41.118Z,30.46
2022-08-16T10:42:13.275Z,30.26
2022-08-16T10:44:42.311Z,30.34
2022-08-16T10:47:11.974Z,30.36
2022-08-16T10:49:39.914Z,30.47
2022-08-16T10:52:18.393Z,30.63
2022-08-16T10:57:35.422Z,30.85
2022-08-16T11:00:21.391Z,30.54
2022-08-16T11:02:58.461Z,30.18
2022-08-16T11:05:59.097Z,29.85
2022-08-16T11:08:31.188Z,29.64
2022-08-16T11:11:11.799Z,29.65
2022-08-16T11:14:11.207Z,29.72
2022-08-16T11:19:26.245Z,29.76
2022-08-16T11:22:39.367Z,29.89
2022-08-16T11:24:45.453Z,29.75
2022-08-16T11:27:35.855Z,29.83
2022-08-16T11:30:09.106Z,29.85
2022-08-16T11:32:38.190Z,29.81
2022-08-16T11:35:14.781Z,29.51
2022-08-16T11:40:52.673Z,29.48
2022-08-16T11:43:26.439Z,29.64
2022-08-16T11:45:57.017Z,29.65
2022-08-16T11:48:38.668Z,29.79
2022-08-16T11:51:07.459Z,29.87
2022-08-16T11:53:36.070Z,29.90
2022-08-16T11:56:06.269Z,29.90
2022-08-16T11:58:34.990Z,30.18
2022-08-16T12:01:03.120Z,30.40
2022-08-16T12:03:34.428Z,30.53
2022-08-16T12:06:24.560Z,30.59
2022-08-16T12:09:01.006Z,30.67
2022-08-16T12:11:32.104Z,30.70
2022-08-16T12:14:04.516Z,30.67
2022-08-16T12:16:34.970Z,30.57
2022-08-16T12:19:10.729Z,30.57
2022-08-16T12:21:58.665Z,30.63
2022-08-16T12:24:30.090Z,30.49
2022-08-16T12:27:00.027Z,30.02
2022-08-16T12:29:30.205Z,29.80
2022-08-16T12:32:01.556Z,29.74
2022-08-16T12:34:47.923Z,29.71
2022-08-16T12:37:19.675Z,29.75
2022-08-16T12:39:51.041Z,29.71
2022-08-16T12:42:20.670Z,29.55
2022-08-16T12:44:50.199Z,29.67
2022-08-16T12:47:38.130Z,29.88
2022-08-16T12:50:10.598Z,30.21
2022-08-16T12:52:44.407Z,30.40
2022-08-16T12:55:24.231Z,30.81
2022-08-16T12:58:01.813Z,31.50
2022-08-16T13:00:33.447Z,32.95
2022-08-16T13:03:03.655Z,34.29
2022-08-16T13:08:00.815Z,33.85
2022-08-16T13:10:37.646Z,33.20
2022-08-16T13:13:09.335Z,32.97
2022-08-16T13:15:55.971Z,32.87
2022-08-16T13:18:34.755Z,32.66
2022-08-16T13:21:07.058Z,32.56
2022-08-16T13:23:36.951Z,32.41
2022-08-16T13:26:17.818Z,32.42
2022-08-16T13:28:47.864Z,32.42
2022-08-16T13:31:17.032Z,32.53
2022-08-16T13:33:45.504Z,32.97
2022-08-16T13:36:32.196Z,33.41
2022-08-16T13:39:03.885Z,33.27
2022-08-16T13:41:32.650Z,33.07
2022-08-16T13:44:00.991Z,33.64
2022-08-16T13:46:32.605Z,34.68
2022-08-16T13:49:00.924Z,35.67
2022-08-16T13:51:30.614Z,36.23
2022-08-16T13:54:04.483Z,36.68
2022-08-16T13:56:37.432Z,37.07
2022-08-16T13:59:14.347Z,37.36
2022-08-16T14:01:54.662Z,37.26
2022-08-16T14:04:29.256Z,36.63
2022-08-16T14:06:59.205Z,37.01
2022-08-16T14:09:29.413Z,37.49
2022-08-16T14:12:00.884Z,37.89
2022-08-16T14:14:30.292Z,38.41
2022-08-16T14:17:05.006Z,38.91
2022-08-16T14:19:45.017Z,39.34
2022-08-16T14:22:30.439Z,39.49
2022-08-16T14:25:00.735Z,40.09
2022-08-16T14:27:31.176Z,40.56
2022-08-16T14:30:01.398Z,40.80
2022-08-16T14:32:33.442Z,40.58
2022-08-16T14:35:07.446Z,41.13
2022-08-16T14:37:36.486Z,41.91
2022-08-16T14:40:07.584Z,42.15
2022-08-16T14:42:36.749Z,42.40
2022-08-16T14:45:09.154Z,42.72
2022-08-16T14:47:38.530Z,42.62
2022-08-16T14:50:10.164Z,42.74
2022-08-16T14:52:56.399Z,43.37
2022-08-16T14:55:29.239Z,43.58
2022-08-16T14:57:58.469Z,44.07
2022-08-16T15:00:36.451Z,44.68
2022-08-16T15:03:09.751Z,45.22
2022-08-16T15:05:40.740Z,45.37
2022-08-16T15:08:10.451Z,45.50
2022-08-16T15:10:42.737Z,45.47
2022-08-16T15:13:15.098Z,45.59
2022-08-16T15:15:44.132Z,45.77
2022-08-16T15:18:23.433Z,46.05
2022-08-16T15:20:57.769Z,46.33
2022-08-16T15:23:28.625Z,46.56
2022-08-16T15:26:02.923Z,46.76
2022-08-16T15:28:37.314Z,46.63
2022-08-16T15:31:10.005Z,46.66
2022-08-16T15:33:51.090Z,46.63
2022-08-16T15:36:27.201Z,46.58
2022-08-16T15:39:05.781Z,46.55
2022-08-16T15:41:46.860Z,46.77
2022-08-16T15:44:22.637Z,46.88
2022-08-16T15:46:54.593Z,46.59
2022-08-16T15:49:38.676Z,46.42
2022-08-16T15:52:20.471Z,46.44
2022-08-16T15:54:53.001Z,46.46
2022-08-16T15:57:28.536Z,46.37
2022-08-16T16:00:15.406Z,46.21
2022-08-16T16:02:45.478Z,45.88
2022-08-16T16:05:14.631Z,45.21
2022-08-16T16:07:55.911Z,44.37
2022-08-16T16:10:29.379Z,43.88
2022-08-16T16:13:00.954Z,43.29
2022-08-16T16:15:33.317Z,42.62
2022-08-16T16:18:09.533Z,41.43
2022-08-16T16:20:47.357Z,40.26
2022-08-16T16:23:23.502Z,39.66
2022-08-16T16:25:55.020Z,39.23
2022-08-16T16:29:05.479Z,38.46
2022-08-16T16:31:18.638Z,37.37
2022-08-16T16:33:51.504Z,36.75
2022-08-16T16:36:24.313Z,35.56
2022-08-16T16:38:56.630Z,34.53
2022-08-16T16:41:28.396Z,33.77
2022-08-16T16:44:01.297Z,33.18
2022-08-16T16:46:43.039Z,32.74
2022-08-16T16:49:13.963Z,32.40
2022-08-16T16:51:44.472Z,32.16
2022-08-16T16:54:13.379Z,31.95
2022-08-16T16:56:59.594Z,31.70
2022-08-16T16:59:28.433Z,31.46
2022-08-16T17:02:38.529Z,31.30
2022-08-16T17:04:48.550Z,31.04
2022-08-16T17:07:18.049Z,30.79
2022-08-16T17:09:54.059Z,30.50
2022-08-16T17:12:24.891Z,30.27
2022-08-16T17:14:55.309Z,30.00
2022-08-16T17:17:24.382Z,29.70
2022-08-16T17:19:52.553Z,29.46
2022-08-16T17:22:23.364Z,29.27
2022-08-16T17:24:53.564Z,29.11
2022-08-16T17:27:33.676Z,28.93
2022-08-16T17:30:20.181Z,28.72
2022-08-16T17:33:05.670Z,28.57
2022-08-16T17:35:37.085Z,28.37
2022-08-16T17:38:09.172Z,28.22
2022-08-16T17:40:47.771Z,28.08
2022-08-16T17:43:36.057Z,27.80
2022-08-16T17:46:06.438Z,27.61
2022-08-16T17:48:54.894Z,27.48
2022-08-16T17:51:28.875Z,27.30
2022-08-16T17:53:57.478Z,27.13
2022-08-16T17:56:25.530Z,27.02
2022-08-16T17:58:53.424Z,26.85
2022-08-16T18:01:26.777Z,26.69
2022-08-16T18:04:07.804Z,26.52
2022-08-16T18:06:41.157Z,26.39
2022-08-16T18:09:10.337Z,26.24
2022-08-16T18:11:40.699Z,26.08
2022-08-16T18:14:10.558Z,25.89
2022-08-16T18:16:41.004Z,25.83
2022-08-16T18:19:11.615Z,25.77
2022-08-16T18:21:59.878Z,25.71
2022-08-16T18:24:29.596Z,25.66
2022-08-16T18:27:25.632Z,25.63
2022-08-16T18:29:47.415Z,25.61
2022-08-16T18:32:22.003Z,25.56
2022-08-16T18:34:55.362Z,25.52
2022-08-16T18:37:24.750Z,25.48
2022-08-16T18:39:53.064Z,25.47
2022-08-16T18:42:21.316Z,25.44
2022-08-16T18:44:49.372Z,25.41
2022-08-16T18:47:17.359Z,25.36
2022-08-16T18:49:45.716Z,25.36
2022-08-16T18:52:25.057Z,25.35
2022-08-16T18:55:01.794Z,25.36
2022-08-16T18:57:31.538Z,25.35
2022-08-16T18:59:59.606Z,25.33
2022-08-16T19:02:56.806Z,25.31
2022-08-16T19:05:24.515Z,25.27
2022-08-16T19:07:52.596Z,25.24
2022-08-16T19:10:21.080Z,25.23
2022-08-16T19:12:49.298Z,25.22
2022-08-16T19:15:21.911Z,25.21
2022-08-16T19:17:50.201Z,25.20
2022-08-16T19:20:22.775Z,25.20
2022-08-16T19:23:05.233Z,25.20
2022-08-16T19:25:48.728Z,25.13
2022-08-16T19:28:51.734Z,25.09
2022-08-16T19:31:25.222Z,25.06
2022-08-16T19:33:57.020Z,25.05
2022-08-16T19:36:37.130Z,25.08
2022-08-16T19:39:11.737Z,25.06
2022-08-16T19:41:53.784Z,25.02
2022-08-16T19:44:23.662Z,25.00
2022-08-16T19:46:52.031Z,24.99
2022-08-16T19:49:20.207Z,24.95
2022-08-16T19:51:48.939Z,24.86
2022-08-16T19:54:18.099Z,24.80
2022-08-16T19:56:46.462Z,24.71
2022-08-16T19:59:20.529Z,24.58
2022-08-16T20:01:52.373Z,24.47
2022-08-16T20:04:22.872Z,24.36
2022-08-16T20:06:52.453Z,24.27
2022-08-16T20:09:23.918Z,24.20
2022-08-16T20:11:53.940Z,24.14
2022-08-16T20:14:25.338Z,24.04
2022-08-16T20:17:00.886Z,23.95
2022-08-16T20:19:36.040Z,23.91
2022-08-16T20:22:30.020Z,23.81
2022-08-16T20:25:07.509Z,23.73
2022-08-16T20:27:40.526Z,23.71
2022-08-16T20:30:11.294Z,23.68
2022-08-16T20:32:39.327Z,23.64
2022-08-16T20:35:10.679Z,23.63
2022-08-16T20:37:39.874Z,23.63
2022-08-16T20:40:28.441Z,23.59
2022-08-16T20:43:06.708Z,23.52
2022-08-16T20:45:36.541Z,23.51
2022-08-16T20:48:11.710Z,23.44
2022-08-16T20:50:39.902Z,23.36
2022-08-16T20:53:09.154Z,23.26
2022-08-16T20:55:40.606Z,23.20
2022-08-16T20:58:08.848Z,23.18
2022-08-16T21:00:37.359Z,23.13
2022-08-16T21:03:10.282Z,23.10
2022-08-16T21:05:38.717Z,23.08
2022-08-16T21:08:28.687Z,23.02
2022-08-16T21:10:56.826Z,22.94
2022-08-16T21:13:26.101Z,22.91
2022-08-16T21:15:54.452Z,22.83
2022-08-16T21:18:22.526Z,22.80
2022-08-16T21:20:50.796Z,22.71
2022-08-16T21:23:18.969Z,22.64
2022-08-16T21:25:54.819Z,22.61
2022-08-16T21:28:38.990Z,22.58
2022-08-16T21:31:13.430Z,22.57
2022-08-16T21:33:43.436Z,22.53
2022-08-16T21:36:12.721Z,22.49
2022-08-16T21:38:40.996Z,22.44
2022-08-16T21:41:12.077Z,22.41
2022-08-16T21:43:40.621Z,22.38
2022-08-16T21:46:09.202Z,22.36
2022-08-16T21:48:40.695Z,22.36
2022-08-16T21:51:13.264Z,22.34
2022-08-16T21:53:43.286Z,22.30
2022-08-16T21:56:12.715Z,22.28
2022-08-16T21:58:52.791Z,22.24
2022-08-16T22:01:23.355Z,22.18
2022-08-16T22:04:35.241Z,22.10
2022-08-16T22:06:42.507Z,22.10
2022-08-16T22:09:15.509Z,22.11
2022-08-16T22:11:44.493Z,22.06
2022-08-16T22:14:12.967Z,22.01
2022-08-16T22:16:42.217Z,21.96
2022-08-16T22:19:12.363Z,21.92
2022-08-16T22:21:40.868Z,21.86
2022-08-16T22:24:10.165Z,21.80
2022-08-16T22:26:43.061Z,21.79
2022-08-16T22:29:15.238Z,21.79
2022-08-16T22:31:44.618Z,21.78
2022-08-16T22:34:14.030Z,21.74
2022-08-16T22:36:43.012Z,21.72
2022-08-16T22:39:13.612Z,21.66
2022-08-16T22:41:45.851Z,21.60
2022-08-16T22:44:14.997Z,21.53
2022-08-16T22:46:44.659Z,21.49
2022-08-16T22:49:13.367Z,21.49
2022-08-16T22:51:42.535Z,21.49
2022-08-16T22:54:43.845Z,21.46
2022-08-16T22:56:59.461Z,21.47
2022-08-16T22:59:30.559Z,21.50
2022-08-16T23:02:02.589Z,21.51
2022-08-16T23:04:30.913Z,21.52
2022-08-16T23:06:59.085Z,21.53
2022-08-16T23:09:27.296Z,21.54
2022-08-16T23:11:55.542Z,21.56
2022-08-16T23:14:23.491Z,21.54
2022-08-16T23:16:51.461Z,21.54
2022-08-16T23:19:19.639Z,21.49
2022-08-16T23:21:49.150Z,21.46
2022-08-16T23:24:20.757Z,21.43
2022-08-16T23:26:49.454Z,21.41
2022-08-16T23:29:23.796Z,21.39
2022-08-16T23:31:56.568Z,21.38
2022-08-16T23:34:27.184Z,21.35
2022-08-16T23:36:56.464Z,21.31
2022-08-16T23:39:24.870Z,21.27
2022-08-16T23:41:53.163Z,21.22
2022-08-16T23:44:56.047Z,21.20
2022-08-16T23:47:10.100Z,21.19
2022-08-16T23:49:56.291Z,21.16
2022-08-16T23:52:53.248Z,21.12
2022-08-16T23:55:16.975Z,21.10
2022-08-16T23:57:46.790Z,21.09
